Time;durP1;ratioP1;P1;durP2;ratioP2;P2;SDS_P1;SDS_P2;PMS_P1;PMS_P2;Temp;Humidity;BMP_temperature;BMP_pressure;BME280_temperature;BME280_humidity;BME280_pressure;Samples;Min_cycle;Max_cycle;Signal;HPM_P1;HPM_P2
2022/11/21 00:00:50;;;;;;;5.35;4.70;;;20.90;38.80;;;;;;5052384;28;20431;-58
2022/11/21 00:03:17;;;;;;;4.65;4.25;;;20.90;38.90;;;;;;5050780;28;20041;-58
2022/11/21 00:05:45;;;;;;;4.57;4.18;;;20.90;38.80;;;;;;5068687;28;20549;-57
2022/11/21 00:08:13;;;;;;;4.88;4.47;;;20.90;38.80;;;;;;5053418;28;20051;-59
2022/11/21 00:10:39;;;;;;;5.30;4.80;;;20.90;38.80;;;;;;5053403;28;20033;-59
2022/11/21 00:13:06;;;;;;;4.95;4.55;;;20.80;38.80;;;;;;5035007;28;20036;-59
2022/11/21 00:15:32;;;;;;;5.32;4.82;;;20.80;38.80;;;;;;5052134;28;20508;-59
2022/11/21 00:18:01;;;;;;;5.30;4.80;;;20.80;38.90;;;;;;5050351;28;20036;-58
2022/11/21 00:20:27;;;;;;;5.28;4.80;;;20.80;38.80;;;;;;5054461;28;20701;-59
2022/11/21 00:22:52;;;;;;;4.43;4.03;;;20.70;38.70;;;;;;5052677;28;20377;-57
2022/11/21 00:25:18;;;;;;;4.90;4.50;;;20.70;38.70;;;;;;5051945;28;20033;-58
2022/11/21 00:27:44;;;;;;;4.45;4.05;;;20.70;38.70;;;;;;5054082;28;20044;-58
2022/11/21 00:30:10;;;;;;;4.75;4.35;;;20.70;38.80;;;;;;5054223;28;20044;-58
2022/11/21 00:32:36;;;;;;;4.30;3.90;;;20.60;38.70;;;;;;5054671;28;20081;-58
2022/11/21 00:35:02;;;;;;;4.63;4.20;;;20.60;38.70;;;;;;5053261;28;20041;-57
2022/11/21 00:37:27;;;;;;;4.32;3.92;;;20.60;38.80;;;;;;5049457;28;20838;-58
2022/11/21 00:39:53;;;;;;;4.63;4.22;;;20.60;38.80;;;;;;5051960;28;20040;-59
2022/11/21 00:42:18;;;;;;;4.40;4.00;;;20.60;38.80;;;;;;5052365;28;20105;-58
2022/11/21 00:44:44;;;;;;;4.07;3.67;;;20.60;38.80;;;;;;5052973;28;20076;-58
2022/11/21 00:47:09;;;;;;;4.20;3.80;;;20.50;38.70;;;;;;5051969;28;20909;-58
2022/11/21 00:49:35;;;;;;;4.15;3.85;;;20.50;38.80;;;;;;5052487;28;20490;-58
2022/11/21 00:52:01;;;;;;;4.75;4.22;;;20.50;38.70;;;;;;5052700;28;20037;-59
2022/11/21 00:54:26;;;;;;;4.15;3.85;;;20.50;38.70;;;;;;5053130;28;20036;-59
2022/11/21 00:56:52;;;;;;;3.95;3.65;;;20.50;38.70;;;;;;5035691;28;20132;-59
2022/11/21 00:59:18;;;;;;;4.70;4.30;;;20.50;39.50;;;;;;5052439;28;20041;-58
2022/11/21 01:01:43;;;;;;;4.40;4.00;;;20.40;38.70;;;;;;5053567;28;20044;-58
2022/11/21 01:04:09;;;;;;;4.53;4.13;;;20.40;38.70;;;;;;5034489;28;20102;-59
2022/11/21 01:06:37;;;;;;;4.07;3.67;;;20.40;38.70;;;;;;5051205;28;20148;-59
2022/11/21 01:09:03;;;;;;;4.50;4.18;;;20.40;38.70;;;;;;5050109;28;20163;-59
2022/11/21 01:11:28;;;;;;;3.75;3.45;;;20.40;38.70;;;;;;5052956;28;20448;-58
2022/11/21 01:13:54;;;;;;;4.22;3.83;;;20.30;38.70;;;;;;5054290;28;20117;-57
2022/11/21 01:16:25;;;;;;;3.88;3.58;;;20.30;38.70;;;;;;5051155;28;20140;-58
2022/11/21 01:18:51;;;;;;;;;;;20.30;39.50;;;;;;5051448;28;20415;-58
2022/11/21 01:21:22;;;;;;;3.70;3.40;;;20.30;38.60;;;;;;5051333;28;19920;-59
2022/11/21 01:23:49;;;;;;;4.55;4.15;;;20.30;38.90;;;;;;5052900;28;20051;-59
2022/11/21 01:26:17;;;;;;;4.28;3.88;;;20.20;38.80;;;;;;5050957;28;20032;-58
2022/11/21 01:28:43;;;;;;;4.50;4.10;;;20.20;38.80;;;;;;5051747;28;20051;-59
2022/11/21 01:31:10;;;;;;;4.07;3.67;;;20.20;38.80;;;;;;5056294;28;20415;-59
2022/11/21 01:33:36;;;;;;;4.03;3.63;;;20.20;38.80;;;;;;5061150;28;20059;-58
2022/11/21 01:36:17;;;;;;;4.53;4.13;;;20.20;38.80;;;;;;5055659;28;20126;-58
2022/11/21 01:38:45;;;;;;;4.10;3.78;;;20.20;38.70;;;;;;5056790;28;20033;-59
2022/11/21 01:41:12;;;;;;;4.30;3.90;;;20.20;38.80;;;;;;5055088;28;20407;-59
2022/11/21 01:43:39;;;;;;;4.10;3.70;;;20.10;38.80;;;;;;5054014;28;20037;-58
2022/11/21 01:46:07;;;;;;;4.40;4.00;;;20.10;38.80;;;;;;5069565;28;20082;-58
2022/11/21 01:48:54;;;;;;;3.97;3.67;;;20.10;38.80;;;;;;5053782;28;20040;-59
2022/11/21 01:51:25;;;;;;;4.63;4.22;;;20.10;38.70;;;;;;5055147;28;20040;-58
2022/11/21 01:54:12;;;;;;;4.43;4.03;;;20.10;38.80;;;;;;5056675;28;20068;-58
2022/11/21 01:56:58;;;;;;;3.90;3.60;;;20.10;38.80;;;;;;5055647;28;20136;-59
2022/11/21 01:59:29;;;;;;;4.05;3.65;;;20.10;38.80;;;;;;5055242;28;20037;-59
2022/11/21 02:01:57;;;;;;;4.07;3.63;;;20.10;38.90;;;;;;5054659;28;20119;-59
2022/11/21 02:04:27;;;;;;;4.43;4.03;;;20.00;38.90;;;;;;5054287;28;20045;-59
2022/11/21 02:06:52;;;;;;;4.72;4.32;;;20.00;38.90;;;;;;5055374;28;20998;-58
2022/11/21 02:09:19;;;;;;;4.20;3.88;;;20.00;38.90;;;;;;5056110;28;20123;-59
2022/11/21 02:11:58;;;;;;;3.97;3.67;;;20.00;38.80;;;;;;5053386;28;20514;-58
2022/11/21 02:14:25;;;;;;;4.15;3.85;;;20.00;38.80;;;;;;5051986;28;20044;-59
2022/11/21 02:16:52;;;;;;;4.00;3.70;;;19.90;38.90;;;;;;5054067;28;20125;-59
2022/11/21 02:19:28;;;;;;;4.10;3.70;;;19.90;38.80;;;;;;5055105;28;20068;-59
2022/11/21 02:22:11;;;;;;;3.67;3.38;;;19.90;38.80;;;;;;5051248;28;20037;-59
2022/11/21 02:25:06;;;;;;;4.18;3.80;;;19.90;38.70;;;;;;5038475;28;20480;-58
2022/11/21 02:27:32;;;;;;;4.10;3.70;;;19.90;38.80;;;;;;5054781;28;20036;-58
2022/11/21 02:29:58;;;;;;;4.40;4.00;;;19.90;38.90;;;;;;5054479;28;20191;-58
2022/11/21 02:32:35;;;;;;;4.10;3.70;;;19.90;38.90;;;;;;5055387;28;20041;-58
2022/11/21 02:35:01;;;;;;;4.32;3.92;;;19.90;38.90;;;;;;5056681;28;20051;-58
2022/11/21 02:37:27;;;;;;;4.30;3.90;;;19.90;38.90;;;;;;5053469;28;20131;-58
2022/11/21 02:39:54;;;;;;;4.10;3.80;;;19.90;38.90;;;;;;5053822;28;20037;-58
2022/11/21 02:42:32;;;;;;;4.80;4.38;;;19.80;38.80;;;;;;5069638;28;20037;-58
2022/11/21 02:45:22;;;;;;;4.22;3.83;;;19.80;38.80;;;;;;5056656;28;20040;-58
2022/11/21 02:47:49;;;;;;;4.70;4.20;;;19.80;38.80;;;;;;5051378;28;20404;-58
2022/11/21 02:50:21;;;;;;;4.03;3.63;;;19.80;38.90;;;;;;5052262;28;20044;-58
2022/11/21 02:52:47;;;;;;;3.85;3.55;;;19.80;38.90;;;;;;5061003;28;20051;-58
2022/11/21 02:55:14;;;;;;;3.70;3.40;;;19.80;38.90;;;;;;5055296;28;20045;-57
2022/11/21 02:57:40;;;;;;;4.65;4.10;;;19.80;38.90;;;;;;5053718;28;20384;-58
2022/11/21 03:00:08;;;;;;;4.28;3.88;;;19.80;39.00;;;;;;5053276;28;20577;-58
2022/11/21 03:02:34;;;;;;;4.32;3.97;;;19.70;38.90;;;;;;5061357;28;20384;-58
2022/11/21 03:05:01;;;;;;;5.28;4.78;;;19.70;38.90;;;;;;5054363;28;20067;-58
2022/11/21 03:07:26;;;;;;;4.53;4.13;;;19.70;38.90;;;;;;5055996;28;20583;-58
2022/11/21 03:09:52;;;;;;;4.30;4.00;;;19.70;38.90;;;;;;5060477;28;20124;-58
2022/11/21 03:12:18;;;;;;;4.35;3.95;;;19.70;39.00;;;;;;5053471;28;20511;-58
2022/11/21 03:14:44;;;;;;;4.35;3.95;;;19.70;38.90;;;;;;5053359;28;20083;-58
2022/11/21 03:17:09;;;;;;;4.47;3.95;;;19.70;39.80;;;;;;5053847;28;20045;-58
2022/11/21 03:19:35;;;;;;;4.07;3.78;;;19.70;38.90;;;;;;5054396;28;20705;-58
2022/11/21 03:22:00;;;;;;;3.95;3.65;;;19.70;38.90;;;;;;5052541;28;20491;-59
2022/11/21 03:24:26;;;;;;;3.75;3.45;;;19.70;38.90;;;;;;5033943;28;20526;-58
2022/11/21 03:26:52;;;;;;;4.35;4.00;;;19.70;39.00;;;;;;5054109;28;20039;-59
2022/11/21 03:29:17;;;;;;;4.72;4.32;;;19.70;39.00;;;;;;5054421;28;20158;-59
2022/11/21 03:31:43;;;;;;;4.20;3.80;;;19.60;38.90;;;;;;5054583;28;20036;-59
2022/11/21 03:34:08;;;;;;;4.00;3.70;;;19.60;39.00;;;;;;5053096;28;20090;-58
2022/11/21 03:36:34;;;;;;;3.90;3.60;;;19.60;38.90;;;;;;5050735;28;20036;-59
2022/11/21 03:39:00;;;;;;;3.90;3.60;;;19.60;39.60;;;;;;5054139;28;20052;-58
2022/11/21 03:41:29;;;;;;;4.40;4.00;;;19.60;39.00;;;;;;5054700;28;20040;-59
2022/11/21 03:43:56;;;;;;;4.20;3.90;;;19.60;39.00;;;;;;5054114;28;20422;-59
2022/11/21 03:46:22;;;;;;;4.50;4.10;;;19.60;38.90;;;;;;5053843;28;20040;-58
2022/11/21 03:48:48;;;;;;;4.40;4.00;;;19.50;38.90;;;;;;5052581;28;20044;-58
2022/11/21 03:51:13;;;;;;;4.75;4.35;;;19.50;38.90;;;;;;5053641;28;20632;-58
2022/11/21 03:53:39;;;;;;;4.53;4.13;;;19.50;38.90;;;;;;5051057;28;20542;-58
2022/11/21 03:56:05;;;;;;;3.72;3.40;;;19.50;39.60;;;;;;5054764;28;20044;-58
2022/11/21 03:58:30;;;;;;;5.07;4.57;;;19.50;38.90;;;;;;5051147;28;20972;-58
2022/11/21 04:00:56;;;;;;;4.63;4.22;;;19.50;38.90;;;;;;5052927;28;20036;-58
2022/11/21 04:03:21;;;;;;;4.07;3.67;;;19.50;38.90;;;;;;5053782;28;20916;-58
2022/11/21 04:05:47;;;;;;;4.38;3.97;;;19.50;39.00;;;;;;5052851;28;20072;-59
2022/11/21 04:08:13;;;;;;;4.10;3.78;;;19.40;38.90;;;;;;5051680;28;20361;-58
2022/11/21 04:10:38;;;;;;;4.05;3.65;;;19.40;38.90;;;;;;5052875;28;20498;-59
2022/11/21 04:13:04;;;;;;;4.90;4.50;;;19.40;39.00;;;;;;5051305;28;21080;-59
2022/11/21 04:15:29;;;;;;;4.40;4.00;;;19.40;38.90;;;;;;5052026;28;20075;-59
2022/11/21 04:17:55;;;;;;;4.57;4.03;;;19.40;38.90;;;;;;5053116;28;20032;-59
2022/11/21 04:20:21;;;;;;;4.50;4.10;;;19.40;38.90;;;;;;5051738;28;20307;-59
2022/11/21 04:22:46;;;;;;;4.57;4.18;;;19.40;38.90;;;;;;5053136;28;21040;-58
2022/11/21 04:25:12;;;;;;;4.55;4.15;;;19.40;38.90;;;;;;5054171;28;20040;-58
2022/11/21 04:27:38;;;;;;;4.60;4.20;;;19.40;38.90;;;;;;5051882;28;20629;-58
2022/11/21 04:30:05;;;;;;;3.95;3.55;;;19.40;39.00;;;;;;5052996;28;20068;-58
2022/11/21 04:32:31;;;;;;;4.00;3.60;;;19.30;38.90;;;;;;5052563;28;20179;-59
2022/11/21 04:34:56;;;;;;;4.28;3.88;;;19.30;38.80;;;;;;5052995;28;20467;-58
2022/11/21 04:37:22;;;;;;;4.22;3.83;;;19.30;38.80;;;;;;5051551;28;20036;-59
2022/11/21 04:39:48;;;;;;;4.95;4.18;;;19.30;38.80;;;;;;5052720;28;20107;-59
2022/11/21 04:42:13;;;;;;;5.05;4.55;;;19.30;38.80;;;;;;5035523;28;20028;-58
2022/11/21 04:44:39;;;;;;;4.43;4.03;;;19.30;38.80;;;;;;5053927;28;20033;-58
2022/11/21 04:47:04;;;;;;;4.05;3.72;;;19.30;38.80;;;;;;5050602;28;20528;-58
2022/11/21 04:49:30;;;;;;;4.55;4.00;;;19.30;38.80;;;;;;5052683;28;20045;-58
2022/11/21 04:51:56;;;;;;;4.07;3.78;;;19.30;38.80;;;;;;5051857;28;20111;-58
2022/11/21 04:54:21;;;;;;;4.03;3.72;;;19.30;38.70;;;;;;5051469;28;20121;-59
2022/11/21 04:56:47;;;;;;;4.32;4.00;;;19.20;38.60;;;;;;5051328;28;20040;-58
2022/11/21 04:59:12;;;;;;;4.30;3.90;;;19.20;38.70;;;;;;5053836;28;20039;-58
2022/11/21 05:01:38;;;;;;;4.88;4.47;;;19.20;38.70;;;;;;5052187;28;20041;-58
2022/11/21 05:04:04;;;;;;;4.40;4.00;;;19.20;39.40;;;;;;5054545;28;20037;-58
2022/11/21 05:06:29;;;;;;;4.13;3.72;;;19.20;38.60;;;;;;5057546;28;20693;-58
2022/11/21 05:08:55;;;;;;;4.28;3.90;;;19.20;38.60;;;;;;5057193;28;20083;-59
2022/11/21 05:14:05;;;;;;;4.68;4.28;;;19.20;38.60;;;;;;5057365;28;20570;-59
2022/11/21 05:16:34;;;;;;;4.30;3.90;;;19.20;38.70;;;;;;5040469;28;20067;-59
2022/11/21 05:18:59;;;;;;;4.43;4.03;;;19.10;38.70;;;;;;5058125;28;20064;-59
2022/11/21 05:21:25;;;;;;;3.80;3.50;;;19.10;38.70;;;;;;5056266;28;20079;-59
2022/11/21 05:23:50;;;;;;;4.70;4.30;;;19.10;38.60;;;;;;5055324;28;20444;-58
2022/11/21 05:26:16;;;;;;;4.10;3.80;;;19.10;38.60;;;;;;5056903;28;20041;-60
2022/11/21 05:28:42;;;;;;;4.63;4.15;;;19.10;38.50;;;;;;5055053;28;20037;-58
2022/11/21 05:31:07;;;;;;;4.97;4.47;;;19.10;38.50;;;;;;5053030;28;20511;-58
2022/11/21 05:33:33;;;;;;;4.32;3.92;;;19.10;38.50;;;;;;5037927;28;20403;-59
2022/11/21 05:35:59;;;;;;;3.80;3.50;;;19.10;38.50;;;;;;5052990;28;20070;-57
2022/11/21 05:38:24;;;;;;;4.10;3.80;;;19.10;38.50;;;;;;5052791;28;20571;-57
2022/11/21 05:40:53;;;;;;;4.05;3.70;;;19.10;38.50;;;;;;5052947;28;20047;-57
2022/11/21 05:46:03;;;;;;;4.13;3.72;;;19.10;38.40;;;;;;5041048;28;20499;-57
2022/11/21 05:48:28;;;;;;;5.28;4.63;;;19.00;38.40;;;;;;5056595;28;20043;-56
2022/11/21 05:50:54;;;;;;;4.30;3.90;;;19.00;38.40;;;;;;5056227;28;20117;-57
2022/11/21 05:53:19;;;;;;;4.43;3.88;;;19.00;38.40;;;;;;5055994;28;20125;-58
2022/11/21 05:55:45;;;;;;;3.97;3.67;;;19.00;38.40;;;;;;5055291;28;20131;-58
2022/11/21 05:58:11;;;;;;;4.45;4.05;;;19.00;38.50;;;;;;5055424;28;20036;-60
2022/11/21 06:00:37;;;;;;;4.60;4.20;;;19.00;38.50;;;;;;5054144;28;20155;-59
2022/11/21 06:05:48;;;;;;;4.45;4.05;;;19.00;38.50;;;;;;5055589;28;20052;-58
2022/11/21 06:08:13;;;;;;;4.57;4.20;;;19.00;38.60;;;;;;5056479;28;20055;-58
2022/11/21 06:10:39;;;;;;;4.78;4.38;;;19.00;38.60;;;;;;5056413;28;20044;-58
2022/11/21 06:13:20;;;;;;;5.70;4.25;;;19.00;38.60;;;;;;5055826;28;20044;-58
2022/11/21 06:16:10;;;;;;;4.18;3.88;;;19.00;38.50;;;;;;5052962;28;20045;-57
2022/11/21 06:18:38;;;;;;;4.32;3.92;;;19.00;38.50;;;;;;5056515;28;20044;-58
2022/11/21 06:21:11;;;;;;;4.53;4.13;;;19.00;38.60;;;;;;5052746;28;20037;-58
2022/11/21 06:23:37;;;;;;;5.20;4.80;;;19.00;38.50;;;;;;5053290;28;20847;-58
2022/11/21 06:26:05;;;;;;;4.85;4.35;;;18.90;38.50;;;;;;5062262;28;20058;-58
2022/11/21 06:28:36;;;;;;;5.20;4.70;;;18.90;38.50;;;;;;5061911;28;20041;-57
2022/11/21 06:31:12;;;;;;;5.50;4.53;;;18.90;38.40;;;;;;5056457;28;20071;-58
2022/11/21 06:33:38;;;;;;;5.13;4.50;;;18.90;38.40;;;;;;5056353;28;20094;-58
2022/11/21 06:36:09;;;;;;;5.20;4.70;;;18.90;38.50;;;;;;5053053;28;20480;-59
2022/11/21 06:38:35;;;;;;;5.07;4.60;;;18.90;38.40;;;;;;5055483;28;20037;-58
2022/11/21 06:41:15;;;;;;;4.55;4.15;;;18.90;38.50;;;;;;5053902;28;20436;-58
2022/11/21 06:43:41;;;;;;;4.35;3.95;;;18.80;38.40;;;;;;5051922;28;20505;-58
2022/11/21 06:46:07;;;;;;;4.35;3.95;;;18.90;38.60;;;;;;5057855;28;20041;-58
2022/11/21 06:48:34;;;;;;;4.82;3.83;;;19.00;38.80;;;;;;5054451;28;20434;-56
2022/11/21 06:51:04;;;;;;;4.53;3.80;;;19.30;38.50;;;;;;5058653;28;20092;-59
2022/11/21 06:53:30;;;;;;;4.35;3.95;;;19.70;37.90;;;;;;5033801;28;20052;-58
2022/11/21 06:55:58;;;;;;;4.40;3.55;;;19.90;37.50;;;;;;5050815;28;20573;-57
2022/11/21 06:58:24;;;;;;;4.28;3.88;;;20.20;37.20;;;;;;5035295;28;20040;-57
2022/11/21 07:00:50;;;;;;;4.38;3.97;;;20.40;36.80;;;;;;5052163;28;20087;-58
2022/11/21 07:03:15;;;;;;;5.68;3.95;;;20.60;36.50;;;;;;5052386;28;20533;-58
2022/11/21 07:05:41;;;;;;;5.15;3.55;;;20.80;36.50;;;;;;5059426;28;20048;-59
2022/11/21 07:08:07;;;;;;;6.57;3.42;;;21.00;36.30;;;;;;5035476;28;20178;-59
2022/11/21 07:10:47;;;;;;;5.68;3.15;;;21.30;35.90;;;;;;5040530;28;20097;-58
2022/11/21 07:13:21;;;;;;;7.95;3.60;;;21.60;35.50;;;;;;5051970;28;20044;-59
2022/11/21 07:15:50;;;;;;;5.97;3.47;;;21.90;35.00;;;;;;5035590;28;20712;-57
2022/11/21 07:18:17;;;;;;;6.88;4.10;;;22.20;34.70;;;;;;5047447;28;20040;-60
2022/11/21 07:20:44;;;;;;;4.70;3.80;;;22.30;34.50;;;;;;5051404;28;20044;-59
2022/11/21 07:23:11;;;;;;;4.15;3.30;;;22.30;34.50;;;;;;5040644;28;20037;-59
2022/11/21 07:25:38;;;;;;;6.90;3.95;;;22.30;34.40;;;;;;5052300;28;20606;-59
2022/11/21 07:28:06;;;;;;;6.32;3.90;;;22.20;34.40;;;;;;5052647;28;20044;-59
2022/11/21 07:30:31;;;;;;;6.22;4.30;;;22.20;34.40;;;;;;5051322;28;20496;-59
2022/11/21 07:32:59;;;;;;;5.50;4.40;;;22.20;34.30;;;;;;5050978;28;20121;-59
2022/11/21 07:35:25;;;;;;;5.70;3.80;;;22.10;34.30;;;;;;5042798;28;20059;-59
2022/11/21 07:37:51;;;;;;;4.40;3.78;;;22.00;34.50;;;;;;5053767;28;20033;-58
2022/11/21 07:40:18;;;;;;;4.47;4.03;;;22.00;34.50;;;;;;5054336;28;20041;-59
2022/11/21 07:42:45;;;;;;;3.83;3.53;;;22.10;34.40;;;;;;5052506;28;20126;-59
2022/11/21 07:45:14;;;;;;;4.23;3.83;;;22.10;34.20;;;;;;5037190;28;20454;-59
2022/11/21 07:47:40;;;;;;;4.15;3.75;;;22.20;34.30;;;;;;5053191;28;20044;-58
2022/11/21 07:50:08;;;;;;;4.18;3.78;;;22.20;34.10;;;;;;5034875;28;20049;-58
2022/11/21 07:52:33;;;;;;;4.97;4.10;;;22.20;34.00;;;;;;5034389;28;20403;-60
2022/11/21 07:55:01;;;;;;;4.05;3.65;;;22.30;34.00;;;;;;5051123;28;20044;-59
2022/11/21 07:57:28;;;;;;;4.45;4.05;;;22.30;34.00;;;;;;5051573;28;20049;-60
2022/11/21 07:59:54;;;;;;;5.47;3.85;;;22.30;33.90;;;;;;5052874;28;20029;-60
2022/11/21 08:02:26;;;;;;;3.40;3.15;;;22.20;33.90;;;;;;5049185;28;20052;-59
2022/11/21 08:04:52;;;;;;;4.40;4.00;;;22.00;34.40;;;;;;5052063;28;20089;-59
2022/11/21 08:07:20;;;;;;;4.13;3.38;;;21.70;34.90;;;;;;5041902;28;20129;-59
2022/11/21 08:09:46;;;;;;;4.40;4.00;;;21.40;35.40;;;;;;5051385;28;20036;-58
2022/11/21 08:12:12;;;;;;;4.20;3.90;;;21.30;35.80;;;;;;5051578;28;20040;-59
2022/11/21 08:14:38;;;;;;;4.07;3.67;;;21.40;35.90;;;;;;5049556;28;20087;-58
2022/11/21 08:17:05;;;;;;;3.55;3.30;;;21.60;35.70;;;;;;5052031;28;20106;-58
2022/11/21 08:19:30;;;;;;;9.75;4.03;;;21.80;35.30;;;;;;5050081;28;20446;-59
2022/11/21 08:21:56;;;;;;;8.38;3.85;;;21.90;35.10;;;;;;5051268;28;20041;-58
2022/11/21 08:24:23;;;;;;;4.88;4.07;;;22.00;34.90;;;;;;5051533;28;20045;-58
2022/11/21 08:26:49;;;;;;;3.88;3.30;;;22.10;34.80;;;;;;5052893;28;20045;-59
2022/11/21 08:29:14;;;;;;;4.05;3.40;;;22.20;34.80;;;;;;5050972;28;20098;-58
2022/11/21 08:31:40;;;;;;;4.03;3.45;;;22.30;34.80;;;;;;5052962;28;20127;-59
2022/11/21 08:34:07;;;;;;;4.30;3.58;;;22.30;34.60;;;;;;5048043;28;20107;-59
2022/11/21 08:36:32;;;;;;;5.22;3.50;;;22.40;34.50;;;;;;5052998;28;20048;-58
2022/11/21 08:38:58;;;;;;;5.25;3.60;;;22.40;34.40;;;;;;5050459;28;20043;-59
2022/11/21 08:44:08;;;;;;;3.55;3.20;;;22.50;34.30;;;;;;5050733;28;20049;-59
2022/11/21 08:46:36;;;;;;;4.78;3.20;;;22.50;34.30;;;;;;5050936;28;20055;-58
2022/11/21 08:49:06;;;;;;;3.85;3.55;;;22.50;34.40;;;;;;5051174;28;20045;-58
2022/11/21 08:51:33;;;;;;;4.18;3.38;;;22.50;34.40;;;;;;5049537;28;20143;-58
2022/11/21 08:53:58;;;;;;;4.95;2.88;;;22.50;34.60;;;;;;5051672;28;20411;-58
2022/11/21 08:56:25;;;;;;;4.53;3.10;;;22.50;34.70;;;;;;5040161;28;20052;-57
2022/11/21 08:58:51;;;;;;;2.45;2.22;;;22.40;34.70;;;;;;5052122;28;20060;-59
2022/11/21 09:01:17;;;;;;;2.70;2.50;;;22.20;35.10;;;;;;5054613;28;20556;-59
2022/11/21 09:03:43;;;;;;;3.90;2.80;;;21.90;35.50;;;;;;5037722;28;20048;-59
2022/11/21 09:06:09;;;;;;;4.60;3.42;;;21.60;36.20;;;;;;5052915;28;20036;-60
2022/11/21 09:08:34;;;;;;;4.28;2.92;;;21.40;36.50;;;;;;5051266;28;20443;-59
2022/11/21 09:11:08;;;;;;;3.28;2.90;;;21.40;36.70;;;;;;5047382;28;20484;-58
2022/11/21 09:13:36;;;;;;;5.80;3.50;;;21.50;36.60;;;;;;5050823;28;20656;-58
2022/11/21 09:18:50;;;;;;;4.78;3.50;;;21.60;36.60;;;;;;5048446;28;20041;-59
2022/11/21 09:21:17;;;;;;;6.25;3.38;;;21.70;36.50;;;;;;5050902;28;20037;-58
2022/11/21 09:23:43;;;;;;;3.47;3.03;;;21.70;36.50;;;;;;5052021;28;20480;-58
2022/11/21 09:26:09;;;;;;;5.15;3.40;;;21.70;36.50;;;;;;5054744;28;20041;-58
2022/11/21 09:28:34;;;;;;;5.65;3.05;;;21.80;36.50;;;;;;5051360;28;20044;-57
2022/11/21 09:31:02;;;;;;;5.28;2.95;;;21.80;36.50;;;;;;5050752;28;20127;-58
2022/11/21 09:33:27;;;;;;;3.30;2.80;;;21.80;36.50;;;;;;5051856;28;20041;-59
2022/11/21 09:35:53;;;;;;;4.85;2.95;;;21.80;36.50;;;;;;5052795;28;20223;-59
2022/11/21 09:38:19;;;;;;;4.80;2.53;;;21.80;36.60;;;;;;5066785;28;20094;-58
2022/11/21 09:40:47;;;;;;;3.33;2.63;;;21.80;36.60;;;;;;5047982;28;20716;-58
2022/11/21 09:43:18;;;;;;;4.45;3.08;;;21.80;36.60;;;;;;5034372;28;20545;-59
2022/11/21 09:45:46;;;;;;;4.40;2.97;;;21.80;36.40;;;;;;5055070;28;20048;-58
2022/11/21 09:48:16;;;;;;;3.75;2.90;;;21.80;36.50;;;;;;5050345;28;20044;-59
2022/11/21 09:50:47;;;;;;;4.83;2.90;;;21.80;36.60;;;;;;5050290;28;20051;-58
2022/11/21 09:53:24;;;;;;;5.78;3.00;;;21.70;36.50;;;;;;5048249;28;20045;-59
2022/11/21 09:56:10;;;;;;;4.32;2.42;;;21.80;36.60;;;;;;5056720;28;20049;-59
2022/11/21 09:58:39;;;;;;;5.97;2.65;;;21.80;36.40;;;;;;5052899;28;20226;-58
2022/11/21 10:01:05;;;;;;;4.45;2.78;;;21.80;36.50;;;;;;5051772;28;20073;-58
2022/11/21 10:03:45;;;;;;;4.50;2.78;;;21.80;36.30;;;;;;5047551;28;20159;-59
2022/11/21 10:06:27;;;;;;;5.72;2.70;;;21.70;36.00;;;;;;5051799;28;20513;-59
2022/11/21 10:09:18;;;;;;;3.50;2.55;;;21.70;35.90;;;;;;5052872;28;20171;-57
2022/11/21 10:15:06;;;;;;;2.42;2.20;;;21.70;35.70;;;;;;5054651;28;20057;-59
2022/11/21 10:18:16;;;;;;;3.00;2.33;;;21.70;35.60;;;;;;5035642;28;20049;-58
2022/11/21 10:21:09;;;;;;;5.60;2.13;;;21.60;35.40;;;;;;5057838;28;20077;-59
2022/11/21 10:24:03;;;;;;;3.45;2.10;;;21.70;36.30;;;;;;5056735;28;20107;-58
2022/11/21 10:26:45;;;;;;;16.90;6.35;;;21.70;35.50;;;;;;5045242;28;20335;-59
2022/11/21 10:29:36;;;;;;;17.10;7.53;;;21.60;35.70;;;;;;5051021;28;20378;-58
2022/11/21 10:32:25;;;;;;;28.02;11.38;;;21.60;35.80;;;;;;5051907;28;20041;-57
2022/11/21 10:34:54;;;;;;;32.25;10.85;;;21.60;35.90;;;;;;5046596;28;20439;-59
2022/11/21 10:38:00;;;;;;;29.38;11.95;;;21.50;36.20;;;;;;5052388;28;20040;-60
2022/11/21 10:40:36;;;;;;;31.63;11.30;;;21.60;36.50;;;;;;5054940;28;20060;-58
2022/11/21 10:46:17;;;;;;;33.80;12.63;;;21.70;37.10;;;;;;5055499;28;20124;-59
2022/11/21 10:49:07;;;;;;;29.83;11.82;;;21.70;37.10;;;;;;5060874;28;20577;-60
2022/11/21 10:51:49;;;;;;;28.92;12.93;;;21.80;37.40;;;;;;5052377;28;20118;-60
2022/11/21 10:54:33;;;;;;;39.47;13.68;;;21.80;37.70;;;;;;5052623;28;20045;-60
2022/11/21 10:57:19;;;;;;;29.55;11.77;;;21.80;38.00;;;;;;5056668;28;20047;-60
2022/11/21 11:00:12;;;;;;;32.03;12.43;;;21.80;38.00;;;;;;5054963;28;20049;-60
2022/11/21 11:02:59;;;;;;;33.20;12.02;;;21.80;38.10;;;;;;5039304;28;20435;-59
2022/11/21 11:05:26;;;;;;;33.10;11.02;;;21.80;38.00;;;;;;5057002;28;20048;-60
2022/11/21 11:08:00;;;;;;;30.23;9.50;;;21.80;38.00;;;;;;5053330;28;20047;-60
2022/11/21 11:10:26;;;;;;;36.88;10.13;;;21.80;38.00;;;;;;5052477;28;20127;-59
2022/11/21 11:15:51;;;;;;;26.80;10.43;;;21.90;38.00;;;;;;5053793;28;20111;-58
2022/11/21 11:18:21;;;;;;;24.52;9.95;;;21.90;38.00;;;;;;5055508;28;20091;-59
2022/11/21 11:20:46;;;;;;;23.67;9.13;;;21.90;38.00;;;;;;5053449;28;20116;-57
2022/11/21 11:23:26;;;;;;;22.35;8.75;;;21.90;37.90;;;;;;5038241;28;20051;-57
2022/11/21 11:25:54;;;;;;;19.88;8.60;;;22.00;37.90;;;;;;5040866;28;20036;-57
2022/11/21 11:28:20;;;;;;;22.88;8.93;;;21.90;37.80;;;;;;5053677;28;20041;-59
2022/11/21 11:30:50;;;;;;;18.23;8.23;;;21.90;37.70;;;;;;5038881;28;20044;-58
2022/11/21 11:33:36;;;;;;;20.73;8.30;;;22.00;37.70;;;;;;5060410;28;20057;-59
2022/11/21 11:36:05;;;;;;;21.95;8.70;;;22.00;37.70;;;;;;5038526;28;20036;-58
2022/11/21 11:38:31;;;;;;;20.67;7.72;;;22.00;37.70;;;;;;5054022;28;20041;-58
2022/11/21 11:41:04;;;;;;;17.20;7.13;;;22.00;37.60;;;;;;5052864;28;20044;-58
2022/11/21 11:52:32;;;;;;;16.10;6.68;;;22.00;37.60;;;;;;5052356;28;20144;-58
2022/11/21 11:55:04;;;;;;;15.02;6.53;;;22.00;37.40;;;;;;5053999;28;20055;-58
2022/11/21 11:57:30;;;;;;;14.48;6.15;;;22.00;37.30;;;;;;5052704;28;20044;-58
2022/11/21 12:00:23;;;;;;;13.82;7.10;;;22.00;37.20;;;;;;5042007;28;20609;-58
2022/11/21 12:03:05;;;;;;;11.50;6.18;;;22.00;37.10;;;;;;5054008;28;20056;-58
2022/11/21 12:05:31;;;;;;;14.80;6.68;;;22.00;37.10;;;;;;5051750;28;20056;-58
2022/11/21 12:08:20;;;;;;;13.93;5.88;;;22.00;37.10;;;;;;5052501;28;20439;-58
2022/11/21 12:13:42;;;;;;;13.43;5.70;;;22.00;37.60;;;;;;5053218;28;20064;-58
2022/11/21 12:16:11;;;;;;;12.52;5.97;;;22.00;36.90;;;;;;5052903;28;20053;-58
2022/11/21 12:18:57;;;;;;;13.40;5.13;;;22.00;36.90;;;;;;5053909;28;20041;-58
2022/11/21 12:21:23;;;;;;;11.90;5.22;;;22.00;36.80;;;;;;5051687;28;20073;-58
2022/11/21 12:24:12;;;;;;;10.05;4.60;;;22.00;36.80;;;;;;5053901;28;20526;-59
2022/11/21 12:26:49;;;;;;;9.32;4.72;;;22.00;36.70;;;;;;5051394;28;20562;-58
2022/11/21 12:29:27;;;;;;;6.00;3.92;;;21.90;36.80;;;;;;5053844;28;20041;-58
2022/11/21 12:32:20;;;;;;;7.72;4.95;;;21.70;37.20;;;;;;5052511;28;20048;-58
2022/11/21 12:35:06;;;;;;;8.93;4.97;;;21.40;37.20;;;;;;5051895;28;20505;-57
2022/11/21 12:38:06;;;;;;;5.82;4.00;;;21.00;38.40;;;;;;5052046;28;20048;-58
2022/11/21 12:40:41;;;;;;;6.07;4.22;;;20.80;38.50;;;;;;5051798;28;20044;-58
2022/11/21 12:43:24;;;;;;;10.18;5.18;;;20.60;38.80;;;;;;5050972;28;20392;-57
2022/11/21 12:46:10;;;;;;;9.23;5.03;;;20.50;39.90;;;;;;5050186;28;20502;-58
2022/11/21 12:55:04;;;;;;;8.32;4.38;;;21.10;39.20;;;;;;5054500;28;20048;-57
2022/11/21 12:57:39;;;;;;;7.38;4.03;;;21.30;38.90;;;;;;5051377;28;20563;-57
2022/11/21 13:00:16;;;;;;;12.52;4.50;;;21.40;38.70;;;;;;5052865;28;20041;-58
2022/11/21 13:03:20;;;;;;;8.93;5.00;;;21.60;38.60;;;;;;5052280;28;20065;-58
2022/11/21 13:05:50;;;;;;;8.15;5.38;;;21.70;38.50;;;;;;5049162;28;20041;-57
2022/11/21 13:08:21;;;;;;;9.65;5.65;;;21.70;38.40;;;;;;5053963;28;20982;-58
2022/11/21 13:13:51;;;;;;;10.48;6.82;;;21.80;38.30;;;;;;5051305;28;20132;-58
2022/11/21 13:16:35;;;;;;;11.45;8.00;;;21.80;38.40;;;;;;5050898;28;20139;-59
2022/11/21 13:19:50;;;;;;;10.05;7.93;;;21.80;38.30;;;;;;5042432;28;20041;-58
2022/11/21 13:22:34;;;;;;;11.90;8.60;;;21.90;38.40;;;;;;4950307;28;20060;-59
2022/11/21 13:25:02;;;;;;;12.23;9.15;;;21.90;38.40;;;;;;5052958;28;20190;-58
2022/11/21 13:27:41;;;;;;;10.98;8.93;;;21.90;38.30;;;;;;5053311;28;20521;-58
2022/11/21 13:30:07;;;;;;;11.82;8.75;;;22.00;38.40;;;;;;5063013;28;20048;-59
2022/11/21 13:32:43;;;;;;;10.75;8.57;;;21.90;38.30;;;;;;5055356;28;20052;-57
2022/11/21 13:35:18;;;;;;;11.10;8.93;;;21.90;38.40;;;;;;5063330;28;20052;-59
2022/11/21 13:38:02;;;;;;;13.88;9.02;;;21.90;38.30;;;;;;5056472;28;20086;-58
2022/11/21 13:40:31;;;;;;;10.65;8.95;;;22.00;38.40;;;;;;5056435;28;20079;-58
2022/11/21 13:43:09;;;;;;;11.30;8.40;;;22.00;38.50;;;;;;5054416;28;20451;-60
2022/11/21 13:45:43;;;;;;;12.65;9.38;;;22.00;38.40;;;;;;5053351;28;20057;-59